Time;durP1;ratioP1;P1;durP2;ratioP2;P2;SDS_P1;SDS_P2;PMS_P1;PMS_P2;Temp;Humidity;BMP_temperature;BMP_pressure;BME280_temperature;BME280_humidity;BME280_pressure;Samples;Min_cycle;Max_cycle;Signal;HPM_P1;HPM_P2
2021/12/31 00:01:19;;;;;;;;;;;;;;;9.19;100.00;98248.64;1755032;81;20503;-87
2021/12/31 00:03:45;;;;;;;;;;;;;;;9.22;100.00;98254.95;1754060;81;24773;-87
2021/12/31 00:06:14;;;;;;;;;;;;;;;9.21;100.00;98259.83;1757889;81;21990;-88
2021/12/31 00:08:40;;;;;;;;;;;;;;;9.23;100.00;98267.91;1754176;81;26075;-88
2021/12/31 00:11:06;;;;;;;;;;;;;;;9.24;100.00;98264.36;1758589;81;24494;-87
2021/12/31 00:13:32;;;;;;;;;;;;;;;9.25;100.00;98262.59;1756769;81;20331;-87
2021/12/31 00:15:58;;;;;;;;;;;;;;;9.27;100.00;98265.11;1755978;80;20225;-89
2021/12/31 00:18:24;;;;;;;;;;;;;;;9.27;100.00;98260.72;1757800;81;22107;-88
2021/12/31 00:20:50;;;;;;;;;;;;;;;9.28;100.00;98267.59;1753679;81;26063;-88
2021/12/31 00:23:23;;;;;;;;;;;;;;;9.31;100.00;98265.26;1754196;81;24433;-88
2021/12/31 00:25:47;;;;;;;;;;;;;;;9.35;100.00;98263.64;1735369;81;20546;-88
2021/12/31 00:28:13;;;;;;;;;;;;;;;9.40;100.00;98261.55;1757847;80;24730;-87
2021/12/31 00:30:40;;;;;;;;;;;;;;;9.46;100.00;98263.75;1754832;81;22019;-88
2021/12/31 00:33:08;;;;;;;;;;;;;;;9.50;100.00;98265.20;1737371;81;26549;-87
2021/12/31 00:35:36;;;;;;;;;;;;;;;9.54;100.00;98275.83;1754780;81;25451;-89
2021/12/31 00:38:02;;;;;;;;;;;;;;;9.58;100.00;98273.38;1752288;81;20472;-89
2021/12/31 00:40:28;;;;;;;;;;;;;;;9.61;100.00;98277.06;1757308;81;24702;-89
2021/12/31 00:42:54;;;;;;;;;;;;;;;9.64;100.00;98282.09;1759575;81;21932;-89
2021/12/31 00:45:27;;;;;;;;;;;;;;;9.65;100.00;98286.86;1754633;81;26960;-89
2021/12/31 00:47:53;;;;;;;;;;;;;;;9.65;100.00;98286.36;1753275;81;24403;-89
2021/12/31 00:50:19;;;;;;;;;;;;;;;9.66;100.00;98285.89;1756563;81;20296;-88
2021/12/31 00:52:46;;;;;;;;;;;;;;;9.65;100.00;98292.89;1754677;81;24792;-89
2021/12/31 00:55:20;;;;;;;;;;;;;;;9.65;100.00;98285.55;1756709;81;20157;-89
2021/12/31 00:57:46;;;;;;;;;;;;;;;9.64;100.00;98287.33;1757075;81;25984;-88
2021/12/31 01:00:13;;;;;;;;;;;;;;;9.62;100.00;98286.58;1755974;81;24616;-88
2021/12/31 01:02:43;;;;;;;;;;;;;;;9.63;100.00;98286.11;1758295;81;20197;-88
2021/12/31 01:05:11;;;;;;;;;;;;;;;9.63;100.00;98286.11;1755491;81;24745;-89
2021/12/31 01:07:38;;;;;;;;;;;;;;;9.63;100.00;98288.26;1735905;80;21982;-88
2021/12/31 01:10:04;;;;;;;;;;;;;;;9.63;100.00;98289.56;1754001;81;26014;-89
2021/12/31 01:12:37;;;;;;;;;;;;;;;9.62;100.00;98291.80;1756023;81;24443;-88
2021/12/31 01:15:09;;;;;;;;;;;;;;;9.64;100.00;98290.41;1753389;81;20287;-89
2021/12/31 01:20:06;;;;;;;;;;;;;;;9.67;100.00;98299.33;1757021;81;22073;-89
2021/12/31 01:22:33;;;;;;;;;;;;;;;9.72;100.00;98297.70;1755099;81;26019;-89
2021/12/31 01:25:00;;;;;;;;;;;;;;;9.74;100.00;98294.52;1757155;81;24619;-90
2021/12/31 01:27:29;;;;;;;;;;;;;;;9.84;100.00;98295.09;1757862;81;20181;-89
2021/12/31 01:30:04;;;;;;;;;;;;;;;9.83;100.00;98296.49;1755888;81;24772;-89
2021/12/31 01:32:37;;;;;;;;;;;;;;;9.72;100.00;98288.55;1756104;81;22116;-89
2021/12/31 01:35:03;;;;;;;;;;;;;;;9.73;100.00;98295.45;1755152;81;25989;-90
2021/12/31 01:37:29;;;;;;;;;;;;;;;9.72;100.00;98289.86;1753295;81;24475;-89
2021/12/31 01:39:58;;;;;;;;;;;;;;;9.72;100.00;98295.92;1755844;81;20209;-89
2021/12/31 01:42:36;;;;;;;;;;;;;;;9.74;100.00;98299.75;1754325;81;24754;-90
2021/12/31 01:45:03;;;;;;;;;;;;;;;9.75;100.00;98302.27;1756432;80;22034;-89
2021/12/31 01:47:45;;;;;;;;;;;;;;;9.76;100.00;98303.10;1734478;81;26147;-89
2021/12/31 01:50:07;;;;;;;;;;;;;;;9.75;100.00;98314.02;1752457;81;24515;-90
2021/12/31 01:52:41;;;;;;;;;;;;;;;9.77;100.00;98313.89;1756791;81;20499;-88
2021/12/31 01:55:11;;;;;;;;;;;;;;;9.77;100.00;98315.20;1755362;81;24812;-89
2021/12/31 01:57:41;;;;;;;;;;;;;;;9.78;100.00;98312.96;1755073;81;22125;-88
2021/12/31 02:00:13;;;;;;;;;;;;;;;9.79;100.00;98315.48;1751393;81;26706;-88
2021/12/31 02:02:41;;;;;;;;;;;;;;;9.80;100.00;98317.16;1754437;81;24403;-88
2021/12/31 02:05:08;;;;;;;;;;;;;;;9.80;100.00;98313.70;1756216;81;20186;-87
2021/12/31 02:07:34;;;;;;;;;;;;;;;9.81;100.00;98325.84;1757983;81;24835;-87
2021/12/31 02:10:00;;;;;;;;;;;;;;;9.81;100.00;98320.14;1756228;81;22033;-87
2021/12/31 02:12:29;;;;;;;;;;;;;;;9.83;100.00;98318.70;1759309;81;26661;-87
2021/12/31 02:15:02;;;;;;;;;;;;;;;9.84;100.00;98323.00;1755881;81;24559;-89
2021/12/31 02:17:28;;;;;;;;;;;;;;;9.85;100.00;98322.91;1759428;81;20162;-89
2021/12/31 02:20:05;;;;;;;;;;;;;;;9.84;100.00;98324.30;1755295;80;20331;-89
2021/12/31 02:22:43;;;;;;;;;;;;;;;9.82;100.00;98321.79;1755085;81;22081;-89
2021/12/31 02:25:08;;;;;;;;;;;;;;;9.79;100.00;98319.87;1752707;81;26067;-88
2021/12/31 02:27:40;;;;;;;;;;;;;;;9.79;100.00;98319.40;1755245;81;26097;-88
2021/12/31 02:30:08;;;;;;;;;;;;;;;9.77;100.00;98311.28;1759048;80;20268;-87
2021/12/31 02:32:34;;;;;;;;;;;;;;;9.76;100.00;98313.56;1758921;81;24674;-88
2021/12/31 02:35:01;;;;;;;;;;;;;;;9.75;100.00;98311.41;1757334;81;22012;-88
2021/12/31 02:37:28;;;;;;;;;;;;;;;9.73;100.00;98313.28;1748681;81;26054;-87
2021/12/31 02:39:55;;;;;;;;;;;;;;;9.75;100.00;98315.80;1754968;81;24538;-88
2021/12/31 02:42:21;;;;;;;;;;;;;;;9.76;100.00;98322.70;1759097;81;20244;-88
2021/12/31 02:44:49;;;;;;;;;;;;;;;9.75;100.00;98317.11;1756618;81;24723;-87
2021/12/31 02:47:20;;;;;;;;;;;;;;;9.75;100.00;98319.25;1758860;81;22891;-87
2021/12/31 02:49:48;;;;;;;;;;;;;;;9.77;100.00;98313.43;1757675;81;25937;-88
2021/12/31 02:52:15;;;;;;;;;;;;;;;9.77;100.00;98312.59;1753484;81;24464;-88
2021/12/31 02:54:43;;;;;;;;;;;;;;;9.76;100.00;98310.95;1734628;81;20614;-88
2021/12/31 02:57:11;;;;;;;;;;;;;;;9.77;100.00;98309.51;1757673;81;24889;-88
2021/12/31 02:59:39;;;;;;;;;;;;;;;9.77;100.00;98309.98;1753602;81;22598;-88
2021/12/31 03:02:06;;;;;;;;;;;;;;;9.78;100.00;98312.96;1758281;81;26032;-88
2021/12/31 03:04:36;;;;;;;;;;;;;;;9.78;100.00;98312.49;1753204;81;24482;-88
2021/12/31 03:07:10;;;;;;;;;;;;;;;9.78;100.00;98305.12;1753778;81;20420;-88
2021/12/31 03:09:37;;;;;;;;;;;;;;;9.77;100.00;98312.59;1756421;81;24759;-88
2021/12/31 03:12:04;;;;;;;;;;;;;;;9.75;100.00;98307.96;1758827;81;22057;-88
2021/12/31 03:14:31;;;;;;;;;;;;;;;9.73;100.00;98305.91;1755343;81;25953;-88
2021/12/31 03:16:58;;;;;;;;;;;;;;;9.74;100.00;98312.34;1754063;81;24548;-88
2021/12/31 03:19:24;;;;;;;;;;;;;;;9.73;100.00;98317.67;1752960;81;20539;-87
2021/12/31 03:21:50;;;;;;;;;;;;;;;9.72;100.00;98310.77;1751386;81;24745;-87
2021/12/31 03:24:17;;;;;;;;;;;;;;;9.70;100.00;98315.28;1755551;81;22016;-87
2021/12/31 03:26:43;;;;;;;;;;;;;;;9.67;100.00;98318.92;1747403;81;26067;-87
2021/12/31 03:29:09;;;;;;;;;;;;;;;9.65;100.00;98309.87;1757926;81;24703;-87
2021/12/31 03:31:35;;;;;;;;;;;;;;;9.65;100.00;98311.18;1751851;81;20229;-88
2021/12/31 03:34:01;;;;;;;;;;;;;;;9.63;100.00;98310.47;1753568;81;24795;-87
2021/12/31 03:36:33;;;;;;;;;;;;;;;9.63;100.00;98313.08;1752529;81;21971;-88
2021/12/31 03:38:59;;;;;;;;;;;;;;;9.64;100.00;98319.98;1753432;81;26041;-89
2021/12/31 03:41:26;;;;;;;;;;;;;;;9.63;100.00;98314.39;1730644;81;24060;-88
2021/12/31 03:43:58;;;;;;;;;;;;;;;9.63;100.00;98319.61;1754384;81;20544;-88
2021/12/31 03:46:24;;;;;;;;;;;;;;;9.64;100.00;98321.29;1754046;81;24907;-88
2021/12/31 03:48:50;;;;;;;;;;;;;;;9.64;100.00;98312.61;1752203;81;21928;-88
2021/12/31 03:51:16;;;;;;;;;;;;;;;9.63;100.00;98323.53;1750405;81;25787;-87
2021/12/31 03:53:42;;;;;;;;;;;;;;;9.63;100.00;98324.84;1756599;81;24504;-88
2021/12/31 03:56:08;;;;;;;;;;;;;;;9.63;100.00;98327.45;1756619;81;20237;-87
2021/12/31 03:58:34;;;;;;;;;;;;;;;9.66;100.00;98332.92;1757213;81;24782;-88
2021/12/31 04:01:00;;;;;;;;;;;;;;;9.68;100.00;98341.50;1755707;81;22041;-87
2021/12/31 04:03:27;;;;;;;;;;;;;;;9.69;100.00;98335.81;1754146;81;25959;-87
2021/12/31 04:05:53;;;;;;;;;;;;;;;9.70;100.00;98343.55;1749667;81;24477;-88
2021/12/31 04:08:25;;;;;;;;;;;;;;;9.72;100.00;98345.58;1750970;81;20400;-87
2021/12/31 04:10:51;;;;;;;;;;;;;;;9.73;100.00;98338.58;1752783;81;24843;-88
2021/12/31 04:13:17;;;;;;;;;;;;;;;9.73;100.00;98330.27;1734031;81;24060;-87
2021/12/31 04:15:44;;;;;;;;;;;;;;;9.75;100.00;98339.32;1752125;81;26232;-87
2021/12/31 04:18:10;;;;;;;;;;;;;;;9.77;100.00;98337.42;1750215;81;24344;-87
2021/12/31 04:20:40;;;;;;;;;;;;;;;9.77;100.00;98335.64;1752223;82;20217;-87
2021/12/31 04:23:08;;;;;;;;;;;;;;;9.78;100.00;98333.87;1715687;83;24816;-88
2021/12/31 04:25:33;;;;;;;;;;;;;;;9.79;100.00;98340.77;1718985;82;21980;-87
2021/12/31 04:27:59;;;;;;;;;;;;;;;9.80;100.00;98330.69;1742344;82;26063;-87
2021/12/31 04:30:25;;;;;;;;;;;;;;;9.80;100.00;98335.45;1742013;81;24494;-87
2021/12/31 04:32:51;;;;;;;;;;;;;;;9.81;100.00;98337.13;1752303;82;20276;-87
2021/12/31 04:35:18;;;;;;;;;;;;;;;9.80;100.00;98330.22;1750489;82;24791;-88
2021/12/31 04:37:45;;;;;;;;;;;;;;;9.81;100.00;98328.45;1752114;82;21997;-87
2021/12/31 04:40:11;;;;;;;;;;;;;;;9.82;100.00;98328.82;1752686;81;26838;-88
2021/12/31 04:42:42;;;;;;;;;;;;;;;9.82;100.00;98327.02;1752330;82;24473;-87
2021/12/31 04:45:11;;;;;;;;;;;;;;;9.81;100.00;98334.52;1752287;80;20491;-88
2021/12/31 04:47:42;;;;;;;;;;;;;;;9.81;100.00;98329.29;1748539;82;25798;-88
2021/12/31 04:50:14;;;;;;;;;;;;;;;9.81;100.00;98325.84;1751944;82;22206;-88
2021/12/31 04:52:43;;;;;;;;;;;;;;;9.80;100.00;98319.77;1752286;82;26635;-88
2021/12/31 04:55:11;;;;;;;;;;;;;;;9.81;100.00;98330.59;1752555;82;24490;-89
2021/12/31 04:57:38;;;;;;;;;;;;;;;9.82;100.00;98334.05;1749364;81;20320;-89
2021/12/31 05:00:05;;;;;;;;;;;;;;;9.83;100.00;98338.31;1752629;80;24802;-89
2021/12/31 05:02:40;;;;;;;;;;;;;;;9.83;100.00;98340.92;1752715;81;21951;-88
2021/12/31 05:05:12;;;;;;;;;;;;;;;9.85;100.00;98346.42;1752622;82;26066;-88
2021/12/31 05:07:38;;;;;;;;;;;;;;;9.86;100.00;98351.19;1752558;81;24433;-89
2021/12/31 05:10:05;;;;;;;;;;;;;;;9.86;100.00;98345.49;1752684;81;20270;-89
2021/12/31 05:12:34;;;;;;;;;;;;;;;9.86;100.00;98352.03;1752408;82;24748;-89
2021/12/31 05:15:02;;;;;;;;;;;;;;;9.88;100.00;98343.59;1751974;81;22768;-89
2021/12/31 05:17:28;;;;;;;;;;;;;;;9.89;100.00;98346.58;1756988;81;26263;-89
2021/12/31 05:20:00;;;;;;;;;;;;;;;9.88;100.00;98343.59;1756492;81;20240;-89
2021/12/31 05:22:26;;;;;;;;;;;;;;;9.88;100.00;98344.05;1756997;81;20232;-89
2021/12/31 05:24:54;;;;;;;;;;;;;;;9.89;100.00;98347.05;1756814;81;24708;-87
2021/12/31 05:27:21;;;;;;;;;;;;;;;9.88;100.00;98345.36;1758401;81;21963;-88
2021/12/31 05:29:47;;;;;;;;;;;;;;;9.88;100.00;98350.59;1755939;81;25980;-88
2021/12/31 05:32:13;;;;;;;;;;;;;;;9.87;100.00;98356.29;1747616;81;20870;-87
2021/12/31 05:34:40;;;;;;;;;;;;;;;9.88;100.00;98352.73;1759372;80;20237;-87
2021/12/31 05:37:06;;;;;;;;;;;;;;;9.88;100.00;98361.89;1755247;81;24822;-87
2021/12/31 05:39:32;;;;;;;;;;;;;;;9.87;100.00;98359.40;1753695;81;22021;-88
2021/12/31 05:41:59;;;;;;;;;;;;;;;9.86;100.00;98368.17;1752156;81;26041;-88
2021/12/31 05:44:25;;;;;;;;;;;;;;;9.87;100.00;98375.08;1753684;81;24383;-88
2021/12/31 05:46:52;;;;;;;;;;;;;;;9.88;100.00;98369.73;1755731;81;20362;-87
2021/12/31 05:49:19;;;;;;;;;;;;;;;9.89;100.00;98371.41;1754759;81;24736;-88
2021/12/31 05:51:53;;;;;;;;;;;;;;;9.89;100.00;98376.64;1754362;81;21929;-87
2021/12/31 05:54:20;;;;;;;;;;;;;;;9.90;100.00;98374.86;1756783;81;26212;-87
2021/12/31 05:56:46;;;;;;;;;;;;;;;9.90;100.00;98356.56;1756965;81;24648;-87
2021/12/31 05:59:12;;;;;;;;;;;;;;;9.89;100.00;98354.89;1756148;81;20242;-88
2021/12/31 06:01:38;;;;;;;;;;;;;;;9.87;100.00;98347.14;1755117;81;24741;-88
2021/12/31 06:04:04;;;;;;;;;;;;;;;9.91;100.00;98355.63;1755719;81;22071;-88
2021/12/31 06:06:30;;;;;;;;;;;;;;;9.94;100.00;98361.94;1755410;81;25979;-87
2021/12/31 06:08:59;;;;;;;;;;;;;;;9.96;100.00;98365.30;1757352;81;25128;-88
2021/12/31 06:11:25;;;;;;;;;;;;;;;9.95;100.00;98357.92;1754718;81;20332;-88
2021/12/31 06:14:01;;;;;;;;;;;;;;;9.94;100.00;98352.79;1755334;81;24716;-88
2021/12/31 06:16:19;;;;;;;;;;;;;;;9.92;100.00;98359.92;1753244;81;22945;-88
2021/12/31 06:18:45;;;;;;;;;;;;;;;9.92;100.00;98365.15;1755420;81;21093;-89
2021/12/31 06:21:17;;;;;;;;;;;;;;;9.91;100.00;98364.78;1755357;81;24434;-89
2021/12/31 06:23:43;;;;;;;;;;;;;;;9.88;100.00;98376.27;1754150;81;20257;-88
2021/12/31 06:26:10;;;;;;;;;;;;;;;9.84;100.00;98382.65;1731933;81;24799;-89
2021/12/31 06:28:38;;;;;;;;;;;;;;;9.83;100.00;98382.73;1757779;81;21985;-89
2021/12/31 06:31:04;;;;;;;;;;;;;;;9.82;100.00;98387.63;1754893;81;25934;-89
2021/12/31 06:33:30;;;;;;;;;;;;;;;9.80;100.00;98392.11;1752946;81;24653;-88
2021/12/31 06:36:03;;;;;;;;;;;;;;;9.81;100.00;98400.33;1759394;81;20468;-88
2021/12/31 06:38:29;;;;;;;;;;;;;;;9.79;100.00;98391.27;1753532;81;24767;-88
2021/12/31 06:40:55;;;;;;;;;;;;;;;9.80;100.00;98390.80;1755422;81;22029;-89
2021/12/31 06:43:21;;;;;;;;;;;;;;;9.79;100.00;98393.88;1755243;81;25992;-88
2021/12/31 06:45:47;;;;;;;;;;;;;;;9.81;100.00;98397.70;1757328;81;24466;-88
2021/12/31 06:48:13;;;;;;;;;;;;;;;9.82;100.00;98405.92;1751568;81;20236;-88
2021/12/31 06:50:39;;;;;;;;;;;;;;;9.83;100.00;98397.95;1756948;81;24749;-88
2021/12/31 06:53:06;;;;;;;;;;;;;;;9.84;100.00;98401.41;1748832;81;22008;-88
2021/12/31 06:55:32;;;;;;;;;;;;;;;9.85;100.00;98400.01;1760323;81;26032;-87
2021/12/31 06:57:59;;;;;;;;;;;;;;;9.89;100.00;98405.86;1752824;81;24540;-88
2021/12/31 07:00:25;;;;;;;;;;;;;;;9.91;100.00;98403.98;1755039;80;20230;-88
2021/12/31 07:02:53;;;;;;;;;;;;;;;9.93;100.00;98406.00;1751335;80;25735;-88
2021/12/31 07:05:25;;;;;;;;;;;;;;;9.95;100.00;98400.22;1747813;81;21541;-89
2021/12/31 07:07:51;;;;;;;;;;;;;;;9.97;100.00;98400.50;1751150;81;25944;-88
2021/12/31 07:10:17;;;;;;;;;;;;;;;10.01;100.00;98398.50;1755738;80;24389;-88
2021/12/31 07:12:43;;;;;;;;;;;;;;;10.02;100.00;98402.79;1753143;81;20563;-88
2021/12/31 07:15:10;;;;;;;;;;;;;;;10.04;100.00;98403.03;1754898;81;24816;-88
2021/12/31 07:17:38;;;;;;;;;;;;;;;10.09;100.00;98409.28;1764678;81;22238;-90
2021/12/31 07:20:06;;;;;;;;;;;;;;;10.12;100.00;98403.83;1762590;81;26074;-89
2021/12/31 07:22:38;;;;;;;;;;;;;;;10.14;100.00;98404.58;1763427;81;24442;-89
2021/12/31 07:25:10;;;;;;;;;;;;;;;10.19;100.00;98410.83;1761966;81;20141;-89
2021/12/31 07:27:36;;;;;;;;;;;;;;;10.22;100.00;98416.67;1762394;81;24739;-89
2021/12/31 07:30:03;;;;;;;;;;;;;;;10.25;100.00;98411.72;1762153;81;21897;-89
2021/12/31 07:32:29;;;;;;;;;;;;;;;10.27;100.00;98409.34;1761864;81;25934;-88
2021/12/31 07:35:01;;;;;;;;;;;;;;;10.32;100.00;98415.09;1762178;81;24545;-87
2021/12/31 07:37:27;;;;;;;;;;;;;;;10.39;100.00;98415.51;1767439;81;20511;-87
2021/12/31 07:40:00;;;;;;;;;;;;;;;10.41;100.00;98413.63;1760103;80;24803;-87
2021/12/31 07:42:21;;;;;;;;;;;;;;;10.40;100.00;98408.03;1759507;81;22691;-87
2021/12/31 07:44:47;;;;;;;;;;;;;;;10.43;100.00;98409.11;1767361;81;26067;-87
2021/12/31 07:47:13;;;;;;;;;;;;;;;10.45;100.00;98421.63;1763506;81;24473;-87
2021/12/31 07:49:39;;;;;;;;;;;;;;;10.51;100.00;98416.44;1764046;81;20432;-87
2021/12/31 07:52:05;;;;;;;;;;;;;;;10.52;100.00;98419.42;1758860;80;24790;-87
2021/12/31 07:54:32;;;;;;;;;;;;;;;10.52;100.00;98423.35;1739373;81;22020;-88
2021/12/31 07:56:58;;;;;;;;;;;;;;;10.55;100.00;98425.27;1762914;80;26028;-88
2021/12/31 07:59:24;;;;;;;;;;;;;;;10.56;100.00;98421.72;1762350;80;24509;-88
2021/12/31 08:01:50;;;;;;;;;;;;;;;10.57;100.00;98417.33;1764490;80;20149;-88
2021/12/31 08:04:16;;;;;;;;;;;;;;;10.57;100.00;98418.63;1763976;81;24816;-88
2021/12/31 08:06:42;;;;;;;;;;;;;;;10.59;100.00;98421.95;1762697;81;22024;-88
2021/12/31 08:09:17;;;;;;;;;;;;;;;10.58;100.00;98419.00;1765604;81;26694;-89
2021/12/31 08:11:43;;;;;;;;;;;;;;;10.58;100.00;98417.23;1764342;81;24555;-88
2021/12/31 08:14:16;;;;;;;;;;;;;;;10.63;100.00;98422.13;1767095;80;20331;-89
2021/12/31 08:16:39;;;;;;;;;;;;;;;10.65;100.00;98422.38;1759043;81;24976;-89
2021/12/31 08:19:06;;;;;;;;;;;;;;;10.63;100.00;98409.88;1755426;81;21886;-89
2021/12/31 08:21:33;;;;;;;;;;;;;;;10.68;100.00;98416.09;1753141;81;26818;-88
2021/12/31 08:23:59;;;;;;;;;;;;;;;10.70;100.00;98424.66;1752185;81;24389;-89
2021/12/31 08:26:25;;;;;;;;;;;;;;;10.73;100.00;98429.70;1755813;81;20432;-88
2021/12/31 08:28:51;;;;;;;;;;;;;;;10.74;100.00;98433.52;1755986;81;24825;-88
2021/12/31 08:31:17;;;;;;;;;;;;;;;10.76;100.00;98434.70;1755669;81;22070;-89
2021/12/31 08:33:43;;;;;;;;;;;;;;;10.77;100.00;98436.38;1751282;81;25957;-89
2021/12/31 08:36:09;;;;;;;;;;;;;;;10.79;100.00;98433.20;1754295;81;24405;-89
2021/12/31 08:38:35;;;;;;;;;;;;;;;10.80;100.00;98437.48;1754899;81;20222;-88
2021/12/31 08:41:02;;;;;;;;;;;;;;;10.82;100.00;98446.05;1756401;81;24851;-88
2021/12/31 08:43:31;;;;;;;;;;;;;;;10.83;100.00;98449.04;1757173;81;22075;-89
2021/12/31 08:45:57;;;;;;;;;;;;;;;10.83;100.00;98441.19;1755815;81;26905;-88
2021/12/31 08:48:23;;;;;;;;;;;;;;;10.85;100.00;98445.86;1757313;81;24375;-89
2021/12/31 08:50:49;;;;;;;;;;;;;;;10.85;100.00;98449.31;1755654;81;20312;-88
2021/12/31 08:53:20;;;;;;;;;;;;;;;10.87;100.00;98450.48;1752754;81;24773;-88
2021/12/31 08:55:52;;;;;;;;;;;;;;;10.89;100.00;98455.16;1756626;81;22153;-88
2021/12/31 08:58:18;;;;;;;;;;;;;;;10.89;100.00;98453.84;1756758;81;25983;-90
2021/12/31 09:00:50;;;;;;;;;;;;;;;10.92;100.00;98453.61;1756334;81;24455;-88
2021/12/31 09:03:16;;;;;;;;;;;;;;;10.94;100.00;98456.97;1736105;81;20216;-87
2021/12/31 09:05:42;;;;;;;;;;;;;;;10.96;100.00;98456.41;1760667;81;25525;-87
2021/12/31 09:08:09;;;;;;;;;;;;;;;10.91;100.00;98448.01;1756365;81;20394;-87
2021/12/31 09:10:40;;;;;;;;;;;;;;;11.00;100.00;98464.87;1754916;81;25992;-89
2021/12/31 09:13:10;;;;;;;;;;;;;;;11.01;100.00;98457.38;1754299;81;24456;-88
2021/12/31 09:15:39;;;;;;;;;;;;;;;11.05;100.00;98456.20;1752834;81;20234;-87
2021/12/31 09:18:05;;;;;;;;;;;;;;;11.10;100.00;98449.70;1751477;81;25542;-87
2021/12/31 09:20:31;;;;;;;;;;;;;;;11.14;100.00;98456.84;1750945;82;22953;-87
2021/12/31 09:22:57;;;;;;;;;;;;;;;11.17;100.00;98455.34;1730508;82;25868;-89
2021/12/31 09:25:23;;;;;;;;;;;;;;;11.20;100.00;98454.63;1752351;82;24466;-88
2021/12/31 09:27:50;;;;;;;;;;;;;;;11.23;100.00;98457.05;1751943;81;20328;-88
2021/12/31 09:30:16;;;;;;;;;;;;;;;11.27;100.00;98459.80;1751941;82;24778;-87
2021/12/31 09:32:42;;;;;;;;;;;;;;;11.30;100.00;98466.12;1752573;82;22045;-88
2021/12/31 09:35:08;;;;;;;;;;;;;;;11.34;100.00;98465.44;1752586;81;25966;-87
2021/12/31 09:37:37;;;;;;;;;;;;;;;11.36;100.00;98466.14;1751268;82;24383;-88
2021/12/31 09:40:03;;;;;;;;;;;;;;;11.39;100.00;98466.41;1753491;81;20343;-87
2021/12/31 09:42:29;;;;;;;;;;;;;;;11.41;100.00;98460.56;1728333;81;25084;-88
2021/12/31 09:44:56;;;;;;;;;;;;;;;11.41;100.00;98458.78;1752128;81;21990;-87
2021/12/31 09:47:22;;;;;;;;;;;;;;;11.42;100.00;98459.63;1752545;81;26131;-88
2021/12/31 09:49:48;;;;;;;;;;;;;;;11.46;100.00;98461.06;1751281;81;24422;-88
2021/12/31 09:52:15;;;;;;;;;;;;;;;11.44;100.00;98460.36;1739448;80;20309;-87
2021/12/31 09:54:42;;;;;;;;;;;;;;;11.43;100.00;98457.38;1752713;82;24765;-87
2021/12/31 09:57:13;;;;;;;;;;;;;;;11.41;100.00;98456.64;1752244;82;22077;-87
2021/12/31 09:59:41;;;;;;;;;;;;;;;11.42;100.00;98461.77;1751010;82;26066;-87
2021/12/31 10:02:09;;;;;;;;;;;;;;;11.40;100.00;98453.17;1751417;81;24481;-88
2021/12/31 10:04:55;;;;;;;;;;;;;;;11.40;100.00;98455.80;1752008;80;20315;-88
2021/12/31 10:07:23;;;;;;;;;;;;;;;11.42;100.00;98455.22;1752250;82;24737;-88
2021/12/31 10:10:08;;;;;;;;;;;;;;;11.44;100.00;98451.19;1752862;81;22137;-88
2021/12/31 10:12:53;;;;;;;;;;;;;;;11.45;100.00;98453.70;1752484;81;25987;-88
2021/12/31 10:15:21;;;;;;;;;;;;;;;11.48;100.00;98454.78;1751831;82;24433;-88
2021/12/31 10:17:47;;;;;;;;;;;;;;;11.48;100.00;98452.63;1753757;79;20232;-88
2021/12/31 10:20:14;;;;;;;;;;;;;;;11.49;100.00;98458.23;1754377;81;25007;-88
2021/12/31 10:22:50;;;;;;;;;;;;;;;11.48;100.00;98449.54;1734598;81;21974;-87
2021/12/31 10:25:16;;;;;;;;;;;;;;;11.50;100.00;98458.61;1754057;80;26224;-87
2021/12/31 10:27:42;;;;;;;;;;;;;;;11.49;100.00;98456.45;1733345;82;24667;-87
2021/12/31 10:30:09;;;;;;;;;;;;;;;11.50;100.00;98454.67;1722835;81;20350;-87
2021/12/31 10:32:40;;;;;;;;;;;;;;;11.50;100.00;98454.20;1754174;80;24805;-87
2021/12/31 10:35:11;;;;;;;;;;;;;;;11.51;100.00;98447.98;1752744;81;21962;-87
2021/12/31 10:37:48;;;;;;;;;;;;;;;11.51;100.00;98440.63;1757306;81;26764;-89
2021/12/31 10:40:30;;;;;;;;;;;;;;;11.50;100.00;98440.27;1758644;81;24515;-87
2021/12/31 10:43:11;;;;;;;;;;;;;;;11.51;100.00;98427.53;1726957;82;20277;-89
2021/12/31 10:45:42;;;;;;;;;;;;;;;11.50;100.00;98431.93;1755096;81;25613;-89
2021/12/31 10:48:14;;;;;;;;;;;;;;;11.52;100.00;98424.77;1750551;81;22077;-89
2021/12/31 10:50:41;;;;;;;;;;;;;;;11.54;100.00;98427.28;1755658;81;26132;-89
2021/12/31 10:53:12;;;;;;;;;;;;;;;11.55;100.00;98431.11;1755096;79;24562;-89
2021/12/31 10:55:40;;;;;;;;;;;;;;;11.56;100.00;98426.71;1758077;81;20220;-89
2021/12/31 10:58:08;;;;;;;;;;;;;;;11.58;100.00;98415.14;1753215;81;24737;-88
2021/12/31 11:00:38;;;;;;;;;;;;;;;11.58;100.00;98411.69;1755805;81;21982;-89
2021/12/31 11:03:10;;;;;;;;;;;;;;;11.56;100.00;98403.96;1753138;81;25982;-89
2021/12/31 11:05:36;;;;;;;;;;;;;;;11.58;100.00;98400.73;1759627;81;24613;-89
2021/12/31 11:08:08;;;;;;;;;;;;;;;11.61;100.00;98410.17;1752601;81;20345;-88
2021/12/31 11:10:38;;;;;;;;;;;;;;;11.62;100.00;98406.57;1756477;81;24830;-88
2021/12/31 11:13:06;;;;;;;;;;;;;;;11.62;100.00;98401.33;1753581;81;22146;-89
2021/12/31 11:15:32;;;;;;;;;;;;;;;11.63;100.00;98399.07;1755936;81;25947;-89
2021/12/31 11:17:59;;;;;;;;;;;;;;;11.63;100.00;98395.98;1760051;80;24543;-88
2021/12/31 11:20:26;;;;;;;;;;;;;;;11.66;100.00;98393.62;1762097;80;20344;-88
2021/12/31 11:22:52;;;;;;;;;;;;;;;11.69;100.00;98380.27;1759915;81;24751;-88
2021/12/31 11:25:19;;;;;;;;;;;;;;;11.70;100.00;98374.08;1766336;80;21886;-88
2021/12/31 11:27:47;;;;;;;;;;;;;;;11.72;100.00;98378.74;1760265;80;26047;-87
2021/12/31 11:30:29;;;;;;;;;;;;;;;11.74;100.00;98386.03;1761891;80;24476;-88
2021/12/31 11:32:57;;;;;;;;;;;;;;;11.76;100.00;98385.45;1760480;80;20461;-89
2021/12/31 11:35:39;;;;;;;;;;;;;;;11.74;100.00;98389.48;1762789;80;26276;-86
2021/12/31 11:38:12;;;;;;;;;;;;;;;11.73;100.00;98391.75;1760631;80;23112;-88
2021/12/31 11:40:40;;;;;;;;;;;;;;;11.74;100.00;98385.56;1761955;79;25997;-88
2021/12/31 11:43:23;;;;;;;;;;;;;;;11.76;100.00;98379.37;1763921;80;24551;-88
2021/12/31 11:46:07;;;;;;;;;;;;;;;11.77;100.00;98383.67;1764610;80;20594;-88
2021/12/31 11:48:48;;;;;;;;;;;;;;;11.79;100.00;98378.66;1766228;80;24685;-88
2021/12/31 11:51:19;;;;;;;;;;;;;;;11.80;100.00;98380.33;1761828;80;22486;-88
2021/12/31 11:53:59;;;;;;;;;;;;;;;11.81;100.00;98375.45;1763745;80;25941;-87
2021/12/31 11:56:36;;;;;;;;;;;;;;;11.81;100.00;98361.03;1765238;80;24446;-88
2021/12/31 11:59:10;;;;;;;;;;;;;;;11.83;100.00;98363.54;1759266;80;20232;-88
2021/12/31 12:01:38;;;;;;;;;;;;;;;11.85;100.00;98362.93;1759856;80;24901;-87
2021/12/31 12:04:19;;;;;;;;;;;;;;;11.87;100.00;98355.32;1758330;80;22577;-88
2021/12/31 12:07:05;;;;;;;;;;;;;;;11.88;100.00;98354.37;1671756;84;26063;-87
2021/12/31 12:09:38;;;;;;;;;;;;;;;11.90;100.00;98352.92;1676147;84;25197;-87
2021/12/31 12:12:10;;;;;;;;;;;;;;;11.89;100.00;98352.08;1665797;84;20361;-87
2021/12/31 12:14:43;;;;;;;;;;;;;;;11.91;100.00;98338.39;1674239;84;24802;-88
2021/12/31 12:17:10;;;;;;;;;;;;;;;11.93;100.00;98338.28;1719274;81;21959;-87
2021/12/31 12:19:52;;;;;;;;;;;;;;;11.96;100.00;98328.38;1743914;81;26183;-88
2021/12/31 12:22:32;;;;;;;;;;;;;;;11.97;100.00;98337.92;1753942;81;24431;-88
2021/12/31 12:24:59;;;;;;;;;;;;;;;11.99;100.00;98337.34;1754551;81;20349;-88
2021/12/31 12:27:26;;;;;;;;;;;;;;;12.01;100.00;98326.23;1754097;81;24840;-88
2021/12/31 12:29:54;;;;;;;;;;;;;;;12.02;100.00;98328.39;1756793;81;22089;-90
2021/12/31 12:34:58;;;;;;;;;;;;;;;12.06;100.00;98331.12;1733431;81;24391;-88
2021/12/31 12:37:28;;;;;;;;;;;;;;;12.07;100.00;98344.12;1754333;81;20154;-87
2021/12/31 12:40:04;;;;;;;;;;;;;;;12.06;100.00;98326.71;1755948;81;25538;-89
2021/12/31 12:42:30;;;;;;;;;;;;;;;12.09;100.00;98333.52;1754423;81;21676;-88
2021/12/31 12:45:03;;;;;;;;;;;;;;;12.10;100.00;98324.70;1756001;80;26131;-88
2021/12/31 12:47:35;;;;;;;;;;;;;;;12.12;100.00;98322.78;1757141;81;24509;-89
2021/12/31 12:50:04;;;;;;;;;;;;;;;12.11;100.00;98327.19;1751099;81;20495;-89
2021/12/31 12:52:30;;;;;;;;;;;;;;;12.13;100.00;98321.83;1757094;81;24351;-90
2021/12/31 12:55:09;;;;;;;;;;;;;;;12.14;100.00;98312.53;1751585;81;22035;-88